Time;durP1;ratioP1;P1;durP2;ratioP2;P2;SDS_P1;SDS_P2;PMS_P1;PMS_P2;Temp;Humidity;BMP_temperature;BMP_pressure;BME280_temperature;BME280_humidity;BME280_pressure;Samples;Min_cycle;Max_cycle;Signal;HPM_P1;HPM_P2
2020/12/02 00:01:39;;;;;;;44.70;26.40;;;20.10;94.70;;;;;;4977876;28;19972;-81
2020/12/02 00:04:12;;;;;;;39.05;25.08;;;20.00;94.60;;;;;;4976189;28;20432;-81
2020/12/02 00:06:42;;;;;;;41.65;25.02;;;20.00;94.60;;;;;;4977240;28;20050;-82
2020/12/02 00:09:18;;;;;;;42.83;24.45;;;20.00;94.70;;;;;;4972752;28;20525;-82
2020/12/02 00:12:05;;;;;;;42.17;24.63;;;19.90;94.70;;;;;;4965015;28;20047;-82
2020/12/02 00:14:41;;;;;;;40.33;24.60;;;19.90;94.80;;;;;;4978699;28;20051;-80
2020/12/02 00:17:39;;;;;;;37.80;21.95;;;19.90;94.80;;;;;;4986708;28;20156;-80
2020/12/02 00:24:50;;;;;;;39.40;22.20;;;19.70;94.80;;;;;;5016557;28;20028;-81
2020/12/02 00:28:10;;;;;;;36.55;20.92;;;19.70;94.90;;;;;;5000610;28;20037;-83
2020/12/02 00:35:55;;;;;;;39.13;21.02;;;19.60;95.00;;;;;;4976830;28;20055;-80
2020/12/02 00:39:29;;;;;;;34.83;21.45;;;19.60;95.10;;;;;;4925424;29;20066;-79
2020/12/02 00:42:08;;;;;;;38.90;23.00;;;19.60;95.10;;;;;;4923013;29;20059;-80
2020/12/02 00:44:35;;;;;;;36.35;21.45;;;19.60;95.20;;;;;;4907682;29;20052;-80
2020/12/02 00:47:11;;;;;;;35.30;19.50;;;19.50;95.20;;;;;;4909511;29;20052;-82
2020/12/02 00:49:39;;;;;;;38.53;21.27;;;19.50;95.20;;;;;;4919659;29;20047;-79
2020/12/02 00:52:06;;;;;;;37.60;20.75;;;19.50;95.20;;;;;;4913510;29;20063;-81
2020/12/02 00:54:35;;;;;;;40.05;21.73;;;19.50;95.20;;;;;;4917626;29;20056;-78
2020/12/02 00:57:03;;;;;;;37.25;20.95;;;19.50;95.20;;;;;;4910385;29;20043;-80
2020/12/02 00:59:31;;;;;;;34.25;18.25;;;19.60;95.10;;;;;;4924960;29;20048;-81
2020/12/02 01:02:20;;;;;;;37.15;21.25;;;19.60;95.10;;;;;;4902321;29;20056;-82
2020/12/02 01:04:47;;;;;;;37.10;20.77;;;19.60;95.00;;;;;;4920165;29;20064;-81
2020/12/02 01:07:15;;;;;;;36.83;20.43;;;19.60;95.00;;;;;;4904198;29;20410;-81
2020/12/02 01:09:42;;;;;;;36.55;20.15;;;19.60;94.90;;;;;;4902216;29;20060;-81
2020/12/02 01:12:13;;;;;;;36.63;21.02;;;19.60;94.90;;;;;;4897988;29;20515;-80
2020/12/02 01:14:40;;;;;;;36.50;20.02;;;19.60;94.90;;;;;;4955540;28;20088;-80
2020/12/02 01:17:07;;;;;;;34.05;19.65;;;19.60;94.90;;;;;;4995128;28;20053;-81
2020/12/02 01:19:35;;;;;;;34.23;18.77;;;19.60;94.80;;;;;;4989011;28;20416;-82
2020/12/02 01:22:10;;;;;;;32.53;18.70;;;19.60;94.80;;;;;;4990028;28;20053;-81
2020/12/02 01:24:44;;;;;;;33.53;18.67;;;19.60;94.80;;;;;;4985448;28;20485;-78
2020/12/02 01:27:30;;;;;;;34.22;18.80;;;19.60;94.80;;;;;;5000218;28;20061;-80
2020/12/02 01:29:57;;;;;;;30.73;17.02;;;19.60;94.90;;;;;;4992687;28;20058;-82
2020/12/02 01:32:25;;;;;;;35.50;18.25;;;19.50;94.90;;;;;;4995812;28;20053;-82
2020/12/02 01:34:53;;;;;;;32.85;17.90;;;19.50;95.00;;;;;;4986243;28;20065;-81
2020/12/02 01:37:32;;;;;;;34.03;17.83;;;19.40;95.00;;;;;;4993997;28;20416;-83
2020/12/02 01:40:16;;;;;;;33.03;16.73;;;19.40;95.00;;;;;;4996114;28;20274;-81
2020/12/02 01:42:56;;;;;;;33.17;17.63;;;19.40;95.10;;;;;;4992855;28;20527;-81
2020/12/02 01:45:27;;;;;;;28.95;16.92;;;19.30;95.20;;;;;;5007337;28;20047;-81
2020/12/02 01:48:24;;;;;;;32.58;18.13;;;19.30;95.20;;;;;;4980451;28;20050;-81
2020/12/02 01:51:12;;;;;;;32.58;18.23;;;19.30;95.30;;;;;;4983918;28;20063;-81
2020/12/02 01:53:45;;;;;;;32.83;17.15;;;19.30;95.30;;;;;;4995517;28;20034;-80
2020/12/02 01:56:30;;;;;;;32.40;17.92;;;19.20;95.30;;;;;;5006643;28;20065;-82
2020/12/02 01:59:18;;;;;;;35.03;16.42;;;19.20;95.40;;;;;;5000880;28;20077;-82
2020/12/02 02:02:11;;;;;;;30.45;16.52;;;19.20;95.40;;;;;;4998052;28;20053;-82
2020/12/02 02:05:10;;;;;;;31.50;17.25;;;19.20;95.40;;;;;;4983560;28;20051;-82
2020/12/02 02:07:41;;;;;;;32.85;17.00;;;19.20;95.40;;;;;;5001335;28;20054;-79
2020/12/02 02:10:31;;;;;;;33.45;17.33;;;19.30;95.30;;;;;;4982362;28;20050;-83
2020/12/02 02:13:04;;;;;;;30.88;16.40;;;19.30;95.30;;;;;;4980777;28;20053;-84
2020/12/02 02:15:44;;;;;;;32.58;16.85;;;19.30;95.20;;;;;;4966854;28;20062;-83
2020/12/02 02:18:19;;;;;;;31.40;16.25;;;19.30;95.10;;;;;;4976693;28;20066;-83
2020/12/02 02:20:53;;;;;;;29.70;14.65;;;19.30;95.10;;;;;;4990719;28;20182;-81
2020/12/02 02:23:20;;;;;;;30.23;15.70;;;19.30;95.10;;;;;;4991786;28;20065;-80
2020/12/02 02:25:59;;;;;;;29.40;15.13;;;19.30;95.10;;;;;;5007698;28;20054;-80
2020/12/02 02:28:30;;;;;;;29.00;14.75;;;19.30;95.10;;;;;;5008970;28;20057;-81
2020/12/02 02:30:57;;;;;;;32.40;15.90;;;19.30;95.10;;;;;;4994388;28;20046;-82
2020/12/02 02:33:26;;;;;;;29.92;14.98;;;19.40;95.10;;;;;;5001538;28;20034;-82
2020/12/02 02:35:53;;;;;;;32.22;15.10;;;19.40;95.00;;;;;;4996727;28;20057;-82
2020/12/02 02:38:21;;;;;;;29.77;15.20;;;19.40;94.90;;;;;;4983667;28;20049;-81
2020/12/02 02:40:49;;;;;;;26.88;13.88;;;19.50;94.80;;;;;;5000677;28;20046;-83
2020/12/02 02:43:16;;;;;;;30.10;15.95;;;19.50;94.70;;;;;;5008236;28;20052;-80
2020/12/02 02:45:43;;;;;;;28.98;15.85;;;19.50;94.60;;;;;;5014054;28;20049;-80
2020/12/02 02:48:10;;;;;;;30.30;14.38;;;19.60;94.60;;;;;;5006825;28;20050;-82
2020/12/02 02:50:37;;;;;;;29.63;13.40;;;19.60;94.50;;;;;;5001039;28;20058;-83
2020/12/02 02:53:22;;;;;;;27.75;13.45;;;19.60;94.50;;;;;;4959640;28;20054;-81
2020/12/02 02:55:50;;;;;;;27.85;13.68;;;19.50;94.40;;;;;;4991018;28;20046;-82
2020/12/02 02:58:17;;;;;;;27.15;13.93;;;19.50;94.40;;;;;;4992308;28;20061;-83
2020/12/02 03:00:44;;;;;;;27.38;13.43;;;19.60;94.40;;;;;;4993435;28;20046;-81
2020/12/02 03:03:13;;;;;;;29.67;13.30;;;19.50;94.40;;;;;;4997197;28;20042;-81
2020/12/02 03:05:40;;;;;;;27.35;14.05;;;19.50;94.50;;;;;;4995194;28;20530;-82
2020/12/02 03:08:10;;;;;;;28.60;14.13;;;19.40;94.50;;;;;;4996167;28;20050;-82
2020/12/02 03:10:43;;;;;;;28.95;14.68;;;19.40;94.60;;;;;;4997829;28;20046;-82
2020/12/02 03:13:39;;;;;;;29.67;15.15;;;19.30;94.70;;;;;;4998271;28;20050;-81
2020/12/02 03:16:30;;;;;;;28.63;14.07;;;19.30;94.70;;;;;;4979538;28;20053;-81
2020/12/02 03:19:00;;;;;;;27.58;13.68;;;19.20;94.80;;;;;;4985874;28;20054;-82
2020/12/02 03:21:27;;;;;;;28.92;14.40;;;19.20;94.80;;;;;;4995427;28;20054;-81
2020/12/02 03:23:55;;;;;;;25.70;12.73;;;19.20;94.90;;;;;;4995932;28;20058;-82
2020/12/02 03:26:22;;;;;;;28.33;13.97;;;19.10;95.00;;;;;;4981788;28;20050;-82
2020/12/02 03:28:49;;;;;;;28.70;13.57;;;19.10;95.00;;;;;;4973706;28;20339;-81
2020/12/02 03:31:19;;;;;;;27.80;12.87;;;19.10;95.00;;;;;;4991925;28;20042;-82
2020/12/02 03:33:47;;;;;;;28.48;13.52;;;19.10;95.10;;;;;;4990940;28;20046;-82
2020/12/02 03:36:16;;;;;;;26.95;12.57;;;19.00;95.10;;;;;;4978307;28;20417;-81
2020/12/02 03:38:45;;;;;;;26.75;12.25;;;19.00;95.10;;;;;;4995400;28;20046;-82
2020/12/02 03:41:13;;;;;;;29.42;13.90;;;19.00;95.20;;;;;;4998046;28;20054;-80
2020/12/02 03:43:40;;;;;;;26.50;13.88;;;19.00;95.20;;;;;;5001822;28;20058;-80
2020/12/02 03:46:07;;;;;;;28.67;12.80;;;18.90;95.20;;;;;;5002857;28;20039;-84
2020/12/02 03:48:34;;;;;;;25.33;11.45;;;18.90;95.20;;;;;;5011347;28;20038;-82
2020/12/02 03:51:02;;;;;;;25.90;12.98;;;18.90;95.30;;;;;;4985670;28;20050;-82
2020/12/02 03:53:29;;;;;;;25.85;12.50;;;18.90;95.30;;;;;;5009622;28;20043;-82
2020/12/02 03:55:56;;;;;;;26.90;12.10;;;18.90;95.30;;;;;;5000833;28;20042;-83
2020/12/02 03:58:23;;;;;;;26.65;13.23;;;18.80;95.30;;;;;;4995015;28;20060;-81
2020/12/02 04:00:51;;;;;;;26.55;12.93;;;18.80;95.60;;;;;;4994578;28;20046;-80
2020/12/02 04:03:18;;;;;;;26.58;12.05;;;18.80;95.40;;;;;;5004848;28;20061;-83
2020/12/02 04:05:46;;;;;;;26.95;11.98;;;18.80;95.40;;;;;;4984511;28;20054;-83
2020/12/02 04:08:13;;;;;;;26.20;12.65;;;18.80;95.40;;;;;;4966147;28;20074;-82
2020/12/02 04:10:41;;;;;;;25.42;10.27;;;18.80;95.40;;;;;;4986088;28;20493;-83
2020/12/02 04:13:09;;;;;;;23.83;11.43;;;18.80;95.30;;;;;;4976268;28;20061;-82
2020/12/02 04:15:36;;;;;;;27.05;12.32;;;18.90;95.20;;;;;;4998601;28;20042;-82
2020/12/02 04:18:03;;;;;;;25.95;11.23;;;18.90;95.20;;;;;;4991677;28;20050;-82
2020/12/02 04:20:30;;;;;;;24.75;11.45;;;19.00;95.10;;;;;;4992397;28;20538;-81
2020/12/02 04:23:02;;;;;;;22.85;9.98;;;18.90;95.00;;;;;;4985357;28;20058;-80
2020/12/02 04:25:37;;;;;;;24.15;11.35;;;19.00;95.00;;;;;;4977492;28;20168;-82
2020/12/02 04:28:20;;;;;;;25.00;10.48;;;19.00;94.90;;;;;;4962128;28;20125;-81
2020/12/02 04:30:49;;;;;;;24.08;10.25;;;19.00;94.90;;;;;;4960995;28;20388;-80
2020/12/02 04:33:28;;;;;;;24.98;10.43;;;19.00;94.80;;;;;;4982966;28;20404;-80
2020/12/02 04:36:14;;;;;;;22.70;10.43;;;19.00;94.70;;;;;;4970774;28;20053;-79
2020/12/02 04:38:53;;;;;;;23.95;9.88;;;19.00;94.70;;;;;;4972113;28;20053;-79
2020/12/02 04:41:39;;;;;;;24.92;10.95;;;18.90;94.80;;;;;;5001529;28;20050;-79
2020/12/02 04:44:27;;;;;;;23.40;10.25;;;18.90;94.80;;;;;;4968914;28;20065;-82
2020/12/02 04:47:14;;;;;;;23.40;10.15;;;18.90;94.90;;;;;;4976056;28;20057;-81
2020/12/02 04:49:59;;;;;;;24.55;10.93;;;18.80;95.00;;;;;;4968811;28;20062;-84
2020/12/02 04:52:37;;;;;;;24.42;10.98;;;18.80;95.00;;;;;;4975345;28;20061;-82
2020/12/02 04:55:21;;;;;;;23.70;10.70;;;18.70;95.10;;;;;;4960463;28;20057;-83
2020/12/02 04:58:16;;;;;;;23.80;10.43;;;18.70;95.10;;;;;;4962587;28;20042;-83
2020/12/02 05:01:14;;;;;;;24.42;10.50;;;18.70;95.30;;;;;;4956725;28;20053;-82
2020/12/02 05:04:04;;;;;;;24.27;10.48;;;18.80;95.10;;;;;;4980101;28;20065;-81
2020/12/02 05:07:05;;;;;;;22.40;9.77;;;19.00;95.00;;;;;;4955305;28;20066;-83
2020/12/02 05:10:00;;;;;;;22.33;9.00;;;19.20;94.80;;;;;;4964212;28;20058;-82
2020/12/02 05:13:01;;;;;;;;;;;;;;;;;;;;;
2020/12/02 05:15:42;;;;;;;22.65;9.82;;;19.50;94.10;;;;;;4995140;28;20047;-82
2020/12/02 05:18:24;;;;;;;23.30;9.93;;;19.60;93.90;;;;;;4968009;28;20051;-83
2020/12/02 05:21:23;;;;;;;23.48;9.98;;;19.70;93.60;;;;;;4973200;28;20053;-81
2020/12/02 05:24:23;;;;;;;22.27;10.15;;;19.90;93.40;;;;;;4977830;28;20043;-82
2020/12/02 05:27:16;;;;;;;23.88;10.30;;;20.00;93.00;;;;;;4961076;28;20055;-80
2020/12/02 05:30:35;;;;;;;23.42;10.00;;;20.10;92.70;;;;;;4972340;28;20408;-80
2020/12/02 05:34:04;;;;;;;23.30;9.77;;;20.30;92.40;;;;;;4974265;28;20043;-79
2020/12/02 05:36:51;;;;;;;22.48;9.32;;;20.50;91.80;;;;;;4978635;28;20408;-81
2020/12/02 05:39:45;;;;;;;22.23;9.15;;;20.60;91.40;;;;;;4972320;28;20050;-81
2020/12/02 05:42:40;;;;;;;21.10;8.57;;;20.90;91.00;;;;;;4980711;28;20047;-79
2020/12/02 05:45:35;;;;;;;23.00;9.13;;;21.20;90.50;;;;;;4985707;28;20058;-80
2020/12/02 05:48:06;;;;;;;22.55;9.02;;;21.30;90.00;;;;;;4987152;28;20054;-81
2020/12/02 05:50:33;;;;;;;21.23;8.45;;;21.50;89.30;;;;;;4985911;28;20043;-79
2020/12/02 05:53:17;;;;;;;21.23;8.57;;;21.80;88.40;;;;;;4987614;28;20046;-79
2020/12/02 05:55:46;;;;;;;20.25;8.65;;;21.80;87.80;;;;;;4973433;28;20046;-80
2020/12/02 05:58:25;;;;;;;20.15;7.65;;;21.90;87.40;;;;;;4984038;28;20055;-78
2020/12/02 06:00:52;;;;;;;21.65;8.20;;;22.10;86.80;;;;;;4988739;28;20047;-80
2020/12/02 06:03:26;;;;;;;22.67;8.63;;;22.30;86.10;;;;;;4989537;28;20038;-79
2020/12/02 06:05:59;;;;;;;20.80;8.27;;;22.40;85.50;;;;;;4984290;28;20051;-81
2020/12/02 06:08:44;;;;;;;21.58;9.18;;;22.60;85.00;;;;;;4969601;28;20050;-81
2020/12/02 06:16:58;;;;;;;21.30;8.60;;;22.90;83.60;;;;;;4980722;28;20050;-84
2020/12/02 06:20:28;;;;;;;19.88;8.23;;;23.10;82.90;;;;;;4932057;28;20054;-83
2020/12/02 06:26:58;;;;;;;25.63;7.47;;;23.10;83.50;;;;;;4900626;29;20068;-79
2020/12/02 06:29:38;;;;;;;20.33;7.93;;;23.20;84.20;;;;;;4910229;29;20084;-78
2020/12/02 06:32:28;;;;;;;;;;;;;;;;;;;;;
2020/12/02 06:35:38;;;;;;;24.67;7.57;;;23.10;84.50;;;;;;4917749;29;20056;-82
2020/12/02 06:38:13;;;;;;;22.77;7.53;;;23.00;84.90;;;;;;4885857;29;20056;-82
2020/12/02 06:41:19;;;;;;;22.95;7.78;;;22.90;85.50;;;;;;4903145;29;20056;-82
2020/12/02 06:44:06;;;;;;;32.35;7.60;;;22.90;86.00;;;;;;4903471;29;20056;-80
2020/12/02 06:46:48;;;;;;;25.13;8.00;;;22.80;87.20;;;;;;4899811;29;20056;-79
2020/12/02 06:49:25;;;;;;;27.63;7.75;;;22.70;88.40;;;;;;4890853;29;20053;-81
2020/12/02 06:51:58;;;;;;;27.00;7.63;;;22.70;87.60;;;;;;4905811;29;20057;-83
2020/12/02 06:54:30;;;;;;;21.63;7.38;;;22.70;90.40;;;;;;4886248;29;20071;-84
2020/12/02 06:57:19;;;;;;;29.70;8.38;;;22.60;90.10;;;;;;4898508;29;20375;-79
2020/12/02 07:00:08;;;;;;;23.30;8.35;;;22.60;90.80;;;;;;4896331;29;20061;-81
2020/12/02 07:07:56;;;;;;;;;;;;;;;;;;;;;
2020/12/02 07:12:03;;;;;;;22.70;8.15;;;23.40;85.70;;;;;;4927165;29;20067;-86
2020/12/02 07:19:58;;;;;;;39.50;11.35;;;23.40;87.50;;;;;;4784572;29;20042;-81
2020/12/02 07:23:53;;;;;;;35.65;11.98;;;23.20;90.60;;;;;;4781287;30;20513;-82
2020/12/02 07:40:03;;;;;;;28.42;10.48;;;22.80;93.00;;;;;;4771452;30;20070;-82
2020/12/02 07:46:16;;;;;;;35.92;12.98;;;22.70;93.20;;;;;;5015544;28;20054;-80
2020/12/02 07:49:52;;;;;;;32.45;10.95;;;22.80;92.90;;;;;;4935772;28;20059;-82
2020/12/02 07:52:46;;;;;;;29.13;11.75;;;22.80;92.80;;;;;;4928557;28;20054;-81
2020/12/02 07:56:32;;;;;;;;;;;;;;;;;;;;;
2020/12/02 08:16:41;;;;;;;;;;;;;;;;;;;;;
2020/12/02 08:20:35;;;;;;;19.90;5.95;;;22.30;82.90;;;;;;5036647;28;20052;-82
2020/12/02 08:24:30;;;;;;;20.30;6.15;;;22.40;83.80;;;;;;4957992;28;20056;-85
2020/12/02 08:27:13;;;;;;;20.10;6.47;;;22.50;84.40;;;;;;4868749;29;20065;-84
2020/12/02 08:29:53;;;;;;;18.73;5.97;;;22.50;84.90;;;;;;4876050;29;20045;-86
2020/12/02 08:45:41;;;;;;;16.98;5.45;;;22.50;86.60;;;;;;4863836;29;20072;-83
2020/12/02 08:49:16;;;;;;;;;;;;;;;;;;;;;
2020/12/02 08:56:44;;;;;;;21.55;6.50;;;22.30;87.60;;;;;;4874192;29;20072;-81
2020/12/02 08:59:14;;;;;;;17.88;5.85;;;22.40;87.70;;;;;;4856845;29;20064;-82
2020/12/02 09:01:42;;;;;;;18.35;5.55;;;22.40;87.80;;;;;;4942996;28;20058;-84
2020/12/02 09:04:28;;;;;;;18.52;5.25;;;22.30;87.90;;;;;;5001334;28;20050;-82
2020/12/02 09:12:16;;;;;;;;;;;;;;;;;;;;;
2020/12/02 09:28:39;;;;;;;16.02;5.63;;;22.40;87.80;;;;;;4887141;29;20566;-81
2020/12/02 09:46:19;;;;;;;;;;;;;;;;;;;;;
2020/12/02 10:15:27;;;;;;;15.80;4.88;;;22.60;89.20;;;;;;4701356;30;20073;-81
2020/12/02 10:31:47;;;;;;;16.85;5.28;;;22.50;89.40;;;;;;4744838;30;20056;-80
2020/12/02 10:35:04;;;;;;;11.27;3.90;;;22.40;89.50;;;;;;4769765;29;20067;-79
2020/12/02 10:42:28;;;;;;;17.25;4.28;;;22.30;90.10;;;;;;4781254;29;20039;-80
2020/12/02 10:45:50;;;;;;;17.77;4.85;;;22.20;90.20;;;;;;4804893;29;20063;-81
2020/12/02 10:56:58;;;;;;;;;;;;;;;;;;;;;
2020/12/02 11:18:13;;;;;;;11.00;3.92;;;22.40;89.70;;;;;;4881699;29;20059;-83
2020/12/02 11:22:03;;;;;;;12.57;3.60;;;22.30;89.70;;;;;;4791508;29;20650;-78
2020/12/02 11:25:43;;;;;;;14.07;3.90;;;22.40;89.70;;;;;;4790096;29;20752;-81
2020/12/02 11:29:11;;;;;;;12.52;3.63;;;22.40;89.30;;;;;;4775308;29;20066;-84
2020/12/02 11:32:55;;;;;;;;;;;;;;;;;;;;;
2020/12/02 11:36:15;;;;;;;10.00;3.55;;;22.50;89.10;;;;;;4773048;29;20051;-82
2020/12/02 11:39:22;;;;;;;15.00;4.45;;;22.50;89.00;;;;;;4773668;29;21312;-77
2020/12/02 11:42:16;;;;;;;12.50;3.78;;;22.50;89.00;;;;;;4787608;29;20066;-80
2020/12/02 11:45:40;;;;;;;12.13;3.90;;;22.50;89.10;;;;;;4799065;29;20046;-83
2020/12/02 11:53:29;;;;;;;13.65;4.32;;;22.30;89.40;;;;;;4849300;29;20045;-84
2020/12/02 12:01:37;;;;;;;12.52;3.80;;;22.10;90.00;;;;;;4929577;29;20529;-83
2020/12/02 12:14:40;;;;;;;;;;;;;;;;;;;;;
2020/12/02 12:18:10;;;;;;;9.10;3.47;;;21.90;90.80;;;;;;4830700;29;20111;-83
2020/12/02 12:21:12;;;;;;;11.25;3.50;;;22.00;90.80;;;;;;4848798;29;20049;-82
2020/12/02 12:24:09;;;;;;;13.20;3.47;;;22.10;90.60;;;;;;4864462;29;20075;-86
2020/12/02 12:26:45;;;;;;;10.85;3.42;;;22.20;90.30;;;;;;4893671;29;20056;-85
2020/12/02 12:29:15;;;;;;;10.55;3.53;;;22.30;90.10;;;;;;4885372;29;20055;-82
2020/12/02 12:32:19;;;;;;;11.70;3.50;;;22.40;90.00;;;;;;4881779;29;20053;-86
2020/12/02 12:35:14;;;;;;;12.65;3.58;;;22.30;89.80;;;;;;4864462;29;20377;-86
2020/12/02 12:42:45;;;;;;;16.45;4.32;;;22.40;89.90;;;;;;4845002;29;20052;-86
2020/12/02 12:46:44;;;;;;;14.48;4.35;;;22.40;90.50;;;;;;4840274;29;20089;-84
2020/12/02 13:31:24;;;;;;;;;;;;;;;;;;;;;
2020/12/02 13:35:21;;;;;;;;;;;;;;;;;;;;;
2020/12/02 13:47:17;;;;;;;10.10;2.95;;;22.30;90.90;;;;;;5979084;24;20028;-80
2020/12/02 13:54:32;;;;;;;9.95;3.25;;;22.30;90.80;;;;;;5917805;24;20015;-81
2020/12/02 13:58:39;;;;;;;10.88;3.63;;;22.40;90.70;;;;;;5922805;24;20009;-82
2020/12/02 14:09:10;;;;;;;8.20;3.30;;;22.50;90.20;;;;;;5949426;24;20017;-79
2020/12/02 14:12:21;;;;;;;10.07;3.22;;;22.50;90.20;;;;;;5957734;24;20008;-79
2020/12/02 14:20:24;;;;;;;;;;;;;;;;;;;;;
2020/12/02 14:23:38;;;;;;;11.30;3.00;;;22.40;90.30;;;;;;6282939;22;20028;-80
2020/12/02 14:27:15;;;;;;;;;;;;;;;;;;;;;
2020/12/02 14:34:39;;;;;;;;;;;;;;;;;;;;;
2020/12/02 14:38:13;;;;;;;10.70;3.20;;;22.20;90.70;;;;;;6180811;23;20024;-79
2020/12/02 14:46:12;;;;;;;;;;;;;;;;;;;;;
2020/12/02 14:49:07;;;;;;;12.00;3.10;;;22.30;90.60;;;;;;6174960;23;20025;-81
2020/12/02 14:52:06;;;;;;;10.63;3.28;;;22.30;90.60;;;;;;6159157;23;20021;-80
2020/12/02 14:54:42;;;;;;;10.40;3.47;;;22.40;90.40;;;;;;6155351;23;20032;-78
2020/12/02 15:02:21;;;;;;;9.25;2.95;;;22.40;90.30;;;;;;6117296;23;20017;-79
2020/12/02 15:06:13;;;;;;;14.32;3.63;;;22.40;90.30;;;;;;6160885;23;20013;-77
2020/12/02 15:13:19;;;;;;;12.48;3.30;;;22.30;90.40;;;;;;6175752;23;20017;-76
2020/12/02 15:16:15;;;;;;;10.73;3.20;;;22.30;90.40;;;;;;6200192;23;20026;-79
2020/12/02 15:19:07;;;;;;;10.52;3.78;;;22.20;90.50;;;;;;6230483;23;20374;-78
2020/12/02 15:21:57;;;;;;;9.60;3.58;;;22.20;90.50;;;;;;6222644;23;20016;-80
2020/12/02 15:24:47;;;;;;;10.27;3.47;;;22.20;90.60;;;;;;6248041;22;20030;-79
2020/12/02 15:31:37;;;;;;;8.32;2.85;;;22.10;90.70;;;;;;6194624;23;20018;-79
2020/12/02 15:34:20;;;;;;;9.98;2.83;;;22.20;90.70;;;;;;6234355;23;20020;-77
2020/12/02 15:37:39;;;;;;;7.25;2.65;;;22.10;90.60;;;;;;6241460;23;20031;-79
2020/12/02 15:40:36;;;;;;;9.30;3.42;;;22.20;90.50;;;;;;6242710;23;20015;-80
2020/12/02 15:44:07;;;;;;;7.40;2.92;;;22.40;90.10;;;;;;6182551;23;20020;-78
2020/12/02 15:47:28;;;;;;;7.43;3.08;;;22.70;89.30;;;;;;6191564;23;20026;-80
2020/12/02 15:51:04;;;;;;;10.18;3.60;;;22.80;88.60;;;;;;6136822;23;20017;-81
2020/12/02 15:54:31;;;;;;;8.73;3.08;;;22.90;87.90;;;;;;6247015;23;20022;-80
2020/12/02 16:11:10;;;;;;;10.73;3.20;;;22.80;86.00;;;;;;6086373;23;20037;-78
2020/12/02 16:13:47;;;;;;;9.77;3.70;;;22.70;87.00;;;;;;6074713;23;20030;-79
2020/12/02 16:16:15;;;;;;;14.63;3.20;;;22.60;86.80;;;;;;6081662;23;20051;-79
2020/12/02 16:18:46;;;;;;;10.10;3.25;;;22.50;87.40;;;;;;6076263;23;20023;-81
2020/12/02 16:21:50;;;;;;;12.48;3.78;;;22.30;88.00;;;;;;6066875;23;20157;-77
2020/12/02 16:24:21;;;;;;;9.57;3.45;;;22.30;88.60;;;;;;6075575;23;20030;-77
2020/12/02 16:26:50;;;;;;;10.35;3.55;;;22.30;88.80;;;;;;6085189;23;20022;-82
2020/12/02 16:29:21;;;;;;;12.05;3.40;;;22.20;89.10;;;;;;6088898;23;20003;-79
2020/12/02 16:31:50;;;;;;;9.93;3.08;;;22.20;89.30;;;;;;6085545;23;20023;-80
2020/12/02 16:34:20;;;;;;;10.70;3.38;;;22.10;89.70;;;;;;6078107;23;20033;-83
2020/12/02 16:36:48;;;;;;;10.32;3.20;;;22.10;90.10;;;;;;6068676;23;20497;-82
2020/12/02 16:39:16;;;;;;;13.52;3.40;;;22.10;90.20;;;;;;6020217;23;20019;-83
2020/12/02 16:41:59;;;;;;;11.82;3.40;;;22.00;90.30;;;;;;6037118;23;20026;-78
2020/12/02 16:44:41;;;;;;;10.20;2.70;;;22.00;90.30;;;;;;6196905;23;20016;-81
2020/12/02 16:47:18;;;;;;;16.65;3.83;;;22.00;90.40;;;;;;6221584;23;20023;-82
2020/12/02 16:50:00;;;;;;;14.25;3.20;;;22.10;90.90;;;;;;6245533;23;20024;-81
2020/12/02 16:52:47;;;;;;;14.27;3.72;;;22.20;91.30;;;;;;6232443;23;20020;-79
2020/12/02 16:55:26;;;;;;;12.05;3.70;;;22.30;91.00;;;;;;6260548;22;20012;-81
2020/12/02 16:58:03;;;;;;;11.20;3.42;;;22.20;90.80;;;;;;6266281;23;20447;-80
2020/12/02 17:00:32;;;;;;;11.95;3.13;;;22.10;90.90;;;;;;6259320;23;20447;-81
2020/12/02 17:03:13;;;;;;;11.15;3.42;;;22.10;91.00;;;;;;6247026;23;20026;-81
2020/12/02 17:05:42;;;;;;;11.60;3.70;;;22.10;91.10;;;;;;6221088;23;20020;-80
2020/12/02 17:08:10;;;;;;;18.33;3.33;;;22.10;91.00;;;;;;6247103;22;20462;-81
2020/12/02 17:10:41;;;;;;;11.38;3.50;;;22.10;91.00;;;;;;6248216;23;20008;-80
2020/12/02 17:13:40;;;;;;;12.93;3.50;;;22.10;90.90;;;;;;6252964;22;20026;-79
2020/12/02 17:16:29;;;;;;;9.27;3.22;;;22.10;90.90;;;;;;6230902;23;20019;-78
2020/12/02 17:19:19;;;;;;;8.63;2.80;;;22.20;90.80;;;;;;6267769;23;20027;-79
2020/12/02 17:21:58;;;;;;;9.65;3.25;;;22.20;90.80;;;;;;6259752;23;20011;-77
2020/12/02 17:24:29;;;;;;;11.80;3.10;;;22.30;90.60;;;;;;6259638;22;20020;-78
2020/12/02 17:27:08;;;;;;;8.75;3.03;;;22.40;90.50;;;;;;6223029;23;20028;-80
2020/12/02 17:29:51;;;;;;;9.50;3.20;;;22.50;90.30;;;;;;6221502;23;20028;-79
2020/12/02 17:32:54;;;;;;;9.32;3.00;;;22.60;90.10;;;;;;6220277;23;20092;-79
2020/12/02 17:35:43;;;;;;;12.05;3.03;;;22.70;89.60;;;;;;6228230;23;20115;-79
2020/12/02 17:42:26;;;;;;;9.13;2.90;;;22.70;88.90;;;;;;6224193;23;20024;-79
2020/12/02 17:45:45;;;;;;;11.85;3.50;;;22.60;88.80;;;;;;6206262;23;20028;-79
2020/12/02 17:48:46;;;;;;;9.95;3.35;;;22.60;89.00;;;;;;6195315;23;20035;-79
2020/12/02 17:51:39;;;;;;;10.15;2.95;;;22.50;89.20;;;;;;6224399;23;20024;-79
2020/12/02 17:54:10;;;;;;;7.72;2.83;;;22.40;89.40;;;;;;6236897;23;20409;-79
2020/12/02 17:56:37;;;;;;;10.70;3.38;;;22.40;89.60;;;;;;6263944;23;20016;-80
2020/12/02 17:59:18;;;;;;;15.13;3.30;;;22.30;89.90;;;;;;6249865;23;20027;-80
2020/12/02 18:02:01;;;;;;;10.15;3.58;;;22.30;90.10;;;;;;6229388;23;20479;-79
2020/12/02 18:04:29;;;;;;;6.43;2.65;;;22.20;90.20;;;;;;6257658;23;20020;-78
2020/12/02 18:07:05;;;;;;;7.65;2.88;;;22.10;90.40;;;;;;6247118;23;20023;-79
2020/12/02 18:10:08;;;;;;;13.27;3.97;;;22.10;90.50;;;;;;6256867;23;20020;-80
2020/12/02 18:12:56;;;;;;;10.60;2.97;;;22.10;90.50;;;;;;6252238;23;20031;-79
2020/12/02 18:15:29;;;;;;;9.70;3.10;;;22.20;90.50;;;;;;6219399;23;20016;-79
2020/12/02 18:18:13;;;;;;;10.25;3.42;;;22.20;90.50;;;;;;6256132;23;20020;-81
2020/12/02 18:20:53;;;;;;;9.18;2.78;;;22.20;90.40;;;;;;6260236;23;20019;-77
2020/12/02 18:23:51;;;;;;;9.27;2.85;;;22.30;90.10;;;;;;6263621;22;20018;-79
2020/12/02 18:26:37;;;;;;;9.40;3.70;;;22.30;90.00;;;;;;6277216;23;20020;-80
2020/12/02 18:30:02;;;;;;;7.50;2.70;;;22.30;90.20;;;;;;6249122;23;20030;-78
2020/12/02 18:33:13;;;;;;;10.25;3.20;;;22.30;90.20;;;;;;6169020;23;20032;-80
2020/12/02 18:36:05;;;;;;;6.70;2.65;;;22.30;90.30;;;;;;6156015;23;20022;-79
2020/12/02 18:39:03;;;;;;;7.20;3.00;;;22.30;90.30;;;;;;6220441;23;20394;-79
2020/12/02 18:41:30;;;;;;;10.85;2.95;;;22.20;90.30;;;;;;6220170;23;20023;-80
2020/12/02 18:44:08;;;;;;;7.53;2.60;;;22.20;90.40;;;;;;6220889;23;20020;-77
2020/12/02 18:46:51;;;;;;;11.07;3.17;;;22.30;90.30;;;;;;6241000;23;20000;-80
2020/12/02 18:49:32;;;;;;;8.00;3.08;;;22.40;90.20;;;;;;6246365;22;20071;-79
2020/12/02 18:52:02;;;;;;;8.52;3.00;;;22.30;90.00;;;;;;6244961;22;20024;-81
2020/12/02 18:54:30;;;;;;;8.13;2.65;;;22.40;89.70;;;;;;6239448;23;20027;-80
2020/12/02 18:57:05;;;;;;;9.55;2.65;;;22.50;89.50;;;;;;6225667;23;20020;-83
2020/12/02 18:59:38;;;;;;;9.85;3.30;;;22.50;89.10;;;;;;6222228;23;20027;-83
2020/12/02 19:02:14;;;;;;;9.57;3.30;;;22.60;88.80;;;;;;6226346;23;20023;-82
2020/12/02 19:04:41;;;;;;;7.07;2.78;;;22.50;88.60;;;;;;6257831;23;20012;-81
2020/12/02 19:07:24;;;;;;;6.25;3.03;;;22.50;88.80;;;;;;6249062;22;20339;-81
2020/12/02 19:09:53;;;;;;;7.57;2.80;;;22.40;89.10;;;;;;6221530;23;20474;-81
2020/12/02 19:12:23;;;;;;;7.43;3.10;;;22.40;89.40;;;;;;6219511;23;20019;-81
2020/12/02 19:15:27;;;;;;;17.63;4.40;;;22.40;89.90;;;;;;6246200;23;20012;-82
2020/12/02 19:18:17;;;;;;;8.88;3.08;;;22.30;89.40;;;;;;6220931;23;20020;-79
2020/12/02 19:21:23;;;;;;;7.72;3.15;;;22.30;89.70;;;;;;6260092;23;20016;-81
2020/12/02 19:24:51;;;;;;;12.43;3.57;;;22.10;90.00;;;;;;6197522;23;20028;-80
2020/12/02 19:27:45;;;;;;;7.63;2.50;;;22.00;90.20;;;;;;6156344;23;20089;-82
2020/12/02 19:30:16;;;;;;;9.68;2.97;;;21.90;90.50;;;;;;6255028;23;20023;-81
2020/12/02 19:33:07;;;;;;;9.30;2.97;;;21.80;90.60;;;;;;6221937;23;20016;-81
2020/12/02 19:35:46;;;;;;;9.65;3.05;;;21.70;90.70;;;;;;6256033;23;20045;-81
2020/12/02 19:38:42;;;;;;;7.40;2.92;;;21.70;90.90;;;;;;6256243;23;20016;-81
2020/12/02 19:41:30;;;;;;;10.07;3.88;;;21.60;90.90;;;;;;6224142;23;20031;-81
2020/12/02 19:44:16;;;;;;;9.48;3.25;;;21.60;91.00;;;;;;6218290;23;20031;-81
2020/12/02 19:47:02;;;;;;;12.50;3.47;;;21.60;91.10;;;;;;6216849;23;20046;-81
2020/12/02 19:49:34;;;;;;;12.57;3.42;;;21.50;91.20;;;;;;6256382;23;20027;-79
2020/12/02 19:52:08;;;;;;;12.57;3.33;;;21.50;91.20;;;;;;6226431;23;20016;-78
2020/12/02 19:54:44;;;;;;;14.38;3.33;;;21.50;91.40;;;;;;6198937;23;20444;-80
2020/12/02 19:57:40;;;;;;;11.07;3.17;;;21.40;91.40;;;;;;6219923;23;20016;-81